Climatologie pour Saint-Brevin les Pins
Jour • Résumé pour janvier 21, 2017 Système :  Métrique    Anglais   Mixte
« - 1 jour
+ 1 jour »
Jour Semaine Mois Année Personnalisé
  Maximum : Minimum : Moyenne :
Température sous abri : 6.9 °C -5.6 °C -0.6 °C
Point de rosée : 1.1 °C -6.4 °C -2.9 °C
Humidité : 95 % 64 % 85 %
Vitesse du vent : 12.9 km/h 0.0 km/h 3.5 km/h
Rafale : 17.7 km/h - -
Direction :- - ENE
Pression : 1027.0 hPa 1023.2 hPa -
Précipitations : 0.3 mm    
Historical Graphs
 
 
Tableau de données pour janvier 21, 2017
Heure Tempé Pt rosée Pression Vent Vitesse Rafale Humidité Taux pluie (/hr) Soleil
00:00 -4.2 °C -5.2 °C 1026.6 hPa ENE 3.2 km/h 4.8 km/h 93 % 0.0 mm 0 W/m2
00:05 -4.3 °C -5.3 °C 1026.6 hPa ENE 1.6 km/h 4.8 km/h 93 % 0.0 mm 0 W/m2
00:10 -4.1 °C -5.0 °C 1027.0 hPa ENE 1.6 km/h 3.2 km/h 93 % 0.0 mm 0 W/m2
00:15 -4.3 °C -5.3 °C 1027.0 hPa ENE 3.2 km/h 4.8 km/h 93 % 0.0 mm 0 W/m2
00:20 -4.4 °C -5.4 °C 1027.0 hPa Calm   4.8 km/h 93 % 0.0 mm 0 W/m2
00:25 -4.4 °C -5.4 °C 1027.0 hPa ENE 3.2 km/h 4.8 km/h 93 % 0.0 mm 0 W/m2
00:30 -4.3 °C -5.3 °C 1026.6 hPa ENE 1.6 km/h 4.8 km/h 93 % 0.0 mm 0 W/m2
00:35 -3.9 °C -4.9 °C 1027.0 hPa Calm   4.8 km/h 93 % 0.0 mm 0 W/m2
00:40 -3.8 °C -4.8 °C 1026.6 hPa East 3.2 km/h 4.8 km/h 93 % 0.0 mm 0 W/m2
00:45 -3.8 °C -4.7 °C 1026.6 hPa East 1.6 km/h 8.0 km/h 93 % 0.0 mm 0 W/m2
00:50 -3.7 °C -4.7 °C 1026.6 hPa East 1.6 km/h 8.0 km/h 93 % 0.0 mm 0 W/m2
00:55 -3.6 °C -4.6 °C 1026.6 hPa Calm   4.8 km/h 93 % 0.0 mm 0 W/m2
01:00 -3.6 °C -4.5 °C 1026.6 hPa Calm   3.2 km/h 93 % 0.0 mm 0 W/m2
01:05 -3.9 °C -5.1 °C 1026.6 hPa Calm   3.2 km/h 92 % 0.0 mm 0 W/m2
01:10 -4.2 °C -5.3 °C 1026.6 hPa Calm     92 % 0.0 mm 0 W/m2
01:15 -4.5 °C -5.6 °C 1026.6 hPa Calm     92 % 0.0 mm 0 W/m2
01:20 -4.8 °C -5.9 °C 1026.6 hPa Calm   1.6 km/h 92 % 0.0 mm 0 W/m2
01:25 -4.9 °C -5.9 °C 1026.6 hPa Calm   1.6 km/h 93 % 0.0 mm 0 W/m2
01:30 -5.1 °C -6.0 °C 1026.6 hPa East 1.6 km/h 3.2 km/h 93 % 0.0 mm 0 W/m2
01:35 -5.3 °C -6.3 °C 1027.0 hPa Calm   3.2 km/h 93 % 0.0 mm 0 W/m2
01:40 -5.2 °C -6.2 °C 1026.6 hPa Calm   3.2 km/h 93 % 0.0 mm 0 W/m2
01:50 -5.1 °C -5.9 °C 1026.6 hPa Calm   1.6 km/h 94 % 0.0 mm 0 W/m2
01:55 -5.2 °C -6.0 °C 1026.6 hPa Calm     94 % 0.0 mm 0 W/m2
02:00 -5.3 °C -6.1 °C 1026.6 hPa Calm     94 % 0.0 mm 0 W/m2
02:05 -5.4 °C -6.3 °C 1026.6 hPa Calm     94 % 0.0 mm 0 W/m2
02:10 -5.5 °C -6.3 °C 1026.6 hPa Calm     94 % 0.0 mm 0 W/m2
02:15 -5.4 °C -6.3 °C 1026.6 hPa Calm     94 % 0.0 mm 0 W/m2
02:20 -5.5 °C -6.3 °C 1026.6 hPa Calm   1.6 km/h 94 % 0.0 mm 0 W/m2
02:25 -5.6 °C -6.4 °C 1026.3 hPa Calm   1.6 km/h 94 % 0.0 mm 0 W/m2
02:30 -5.4 °C -6.3 °C 1026.3 hPa Calm   1.6 km/h 94 % 0.0 mm 0 W/m2
02:35 -5.4 °C -6.3 °C 1026.3 hPa Calm     94 % 0.0 mm 0 W/m2
02:40 -5.4 °C -6.3 °C 1026.3 hPa Calm   1.6 km/h 94 % 0.0 mm 0 W/m2
02:45 -5.4 °C -6.3 °C 1026.3 hPa Calm   1.6 km/h 94 % 0.0 mm 0 W/m2
02:50 -5.5 °C -6.3 °C 1026.3 hPa East 1.6 km/h 1.6 km/h 94 % 0.0 mm 0 W/m2
02:55 -5.4 °C -6.3 °C 1026.3 hPa Calm   1.6 km/h 94 % 0.0 mm 0 W/m2
03:00 -5.5 °C -6.3 °C 1026.0 hPa Calm   1.6 km/h 94 % 0.0 mm 0 W/m2
03:05 -5.5 °C -6.3 °C 1026.0 hPa Calm   1.6 km/h 94 % 0.0 mm 0 W/m2
03:10 -5.4 °C -6.3 °C 1026.0 hPa Calm   1.6 km/h 94 % 0.0 mm 0 W/m2
03:15 -5.3 °C -6.1 °C 1026.0 hPa Calm   1.6 km/h 94 % 0.0 mm 0 W/m2
03:20 -5.3 °C -6.1 °C 1026.0 hPa Calm   1.6 km/h 94 % 0.0 mm 0 W/m2
03:25 -5.2 °C -6.0 °C 1026.0 hPa Calm   1.6 km/h 94 % 0.0 mm 0 W/m2
03:30 -5.3 °C -6.1 °C 1026.3 hPa Calm     94 % 0.0 mm 0 W/m2
03:35 -5.3 °C -6.1 °C 1026.3 hPa Calm   4.8 km/h 94 % 0.0 mm 0 W/m2
03:40 -5.6 °C -6.4 °C 1026.3 hPa East 1.6 km/h 4.8 km/h 94 % 0.0 mm 0 W/m2
03:45 -5.6 °C -6.4 °C 1026.3 hPa Calm   3.2 km/h 94 % 0.0 mm 0 W/m2
03:50 -5.4 °C -6.2 °C 1026.3 hPa Calm   3.2 km/h 94 % 0.0 mm 0 W/m2
03:55 -5.4 °C -6.2 °C 1026.0 hPa Calm   3.2 km/h 94 % 0.0 mm 0 W/m2
04:00 -5.3 °C -6.1 °C 1026.0 hPa East 1.6 km/h 4.8 km/h 94 % 0.0 mm 0 W/m2
04:05 -5.3 °C -6.1 °C 1026.0 hPa Calm   8.0 km/h 94 % 0.0 mm 0 W/m2
04:10 -5.1 °C -5.8 °C 1026.0 hPa Calm   8.0 km/h 95 % 0.0 mm 0 W/m2
04:15 -5.2 °C -6.0 °C 1026.0 hPa Calm   4.8 km/h 94 % 0.0 mm 0 W/m2
04:20 -5.1 °C -5.8 °C 1026.0 hPa Calm   4.8 km/h 95 % 0.0 mm 0 W/m2
04:25 -5.3 °C -6.1 °C 1026.0 hPa East 1.6 km/h 3.2 km/h 94 % 0.0 mm 0 W/m2
04:30 -5.2 °C -5.9 °C 1026.0 hPa Calm   4.8 km/h 95 % 0.0 mm 0 W/m2
04:35 -5.2 °C -6.0 °C 1026.0 hPa East 1.6 km/h 4.8 km/h 94 % 0.0 mm 0 W/m2
04:40 -5.3 °C -6.1 °C 1026.0 hPa Calm   3.2 km/h 94 % 0.0 mm 0 W/m2
04:45 -5.6 °C -6.4 °C 1026.0 hPa Calm   3.2 km/h 94 % 0.0 mm 0 W/m2
04:50 -5.5 °C -6.2 °C 1026.0 hPa East 1.6 km/h 3.2 km/h 95 % 0.0 mm 0 W/m2
04:55 -5.6 °C -6.4 °C 1026.0 hPa East 1.6 km/h 4.8 km/h 94 % 0.0 mm 0 W/m2
05:00 -5.5 °C -6.2 °C 1026.0 hPa East 1.6 km/h 4.8 km/h 95 % 0.0 mm 0 W/m2
05:05 -5.3 °C -6.0 °C 1026.0 hPa Calm   4.8 km/h 95 % 0.0 mm 0 W/m2
05:10 -5.1 °C -5.7 °C 1026.0 hPa NE 4.8 km/h 6.4 km/h 95 % 0.0 mm 0 W/m2
05:15 -5.1 °C -5.7 °C 1026.0 hPa Calm   8.0 km/h 95 % 0.0 mm 0 W/m2
05:20 -4.9 °C -5.6 °C 1026.0 hPa NE 1.6 km/h 8.0 km/h 95 % 0.0 mm 0 W/m2
05:25 -4.8 °C -5.5 °C 1026.0 hPa NE 1.6 km/h 4.8 km/h 95 % 0.0 mm 0 W/m2
05:30 -4.8 °C -5.5 °C 1025.6 hPa Calm   8.0 km/h 95 % 0.0 mm 0 W/m2
05:35 -4.7 °C -5.4 °C 1025.6 hPa Calm   8.0 km/h 95 % 0.0 mm 0 W/m2
05:40 -4.7 °C -5.3 °C 1025.6 hPa Calm   6.4 km/h 95 % 0.0 mm 0 W/m2
05:45 -4.6 °C -5.3 °C 1025.6 hPa ENE 6.4 km/h 8.0 km/h 95 % 0.0 mm 0 W/m2
05:50 -4.4 °C -5.1 °C 1025.6 hPa ENE 1.6 km/h 8.0 km/h 95 % 0.0 mm 0 W/m2
05:55 -4.3 °C -5.0 °C 1025.6 hPa Calm   6.4 km/h 95 % 0.0 mm 0 W/m2
06:00 -4.2 °C -4.8 °C 1025.6 hPa ENE 4.8 km/h 6.4 km/h 95 % 0.0 mm 0 W/m2
06:05 -4.1 °C -4.7 °C 1025.6 hPa East 1.6 km/h 11.3 km/h 95 % 0.0 mm 0 W/m2
06:10 -4.1 °C -4.8 °C 1025.6 hPa ENE 1.6 km/h 11.3 km/h 95 % 0.0 mm 0 W/m2
06:15 -4.2 °C -5.0 °C 1025.6 hPa ENE 4.8 km/h 12.9 km/h 94 % 0.0 mm 0 W/m2
06:20 -4.2 °C -5.0 °C 1025.6 hPa ENE 3.2 km/h 12.9 km/h 94 % 0.0 mm 0 W/m2
06:25 -4.2 °C -5.0 °C 1025.6 hPa East 1.6 km/h 11.3 km/h 94 % 0.0 mm 0 W/m2
06:30 -4.3 °C -5.1 °C 1025.3 hPa NE 3.2 km/h 8.0 km/h 94 % 0.0 mm 0 W/m2
06:35 -4.3 °C -5.2 °C 1025.3 hPa ENE 8.0 km/h 12.9 km/h 94 % 0.0 mm 0 W/m2
06:40 -4.4 °C -5.2 °C 1025.3 hPa NE 1.6 km/h 12.9 km/h 94 % 0.0 mm 0 W/m2
06:45 -4.4 °C -5.2 °C 1025.3 hPa ENE 8.0 km/h 14.5 km/h 94 % 0.0 mm 0 W/m2
06:50 -4.4 °C -5.3 °C 1025.3 hPa NE 6.4 km/h 14.5 km/h 94 % 0.0 mm 0 W/m2
07:00 -4.6 °C -5.4 °C 1025.6 hPa NE 1.6 km/h 12.9 km/h 94 % 0.0 mm 0 W/m2
07:05 -4.7 °C -5.5 °C 1025.3 hPa ENE 1.6 km/h 8.0 km/h 94 % 0.0 mm 0 W/m2
07:10 -4.7 °C -5.5 °C 1025.6 hPa ENE 4.8 km/h 6.4 km/h 94 % 0.0 mm 0 W/m2
07:15 -4.7 °C -5.5 °C 1025.6 hPa ENE 3.2 km/h 8.0 km/h 94 % 0.0 mm 0 W/m2
07:20 -4.7 °C -5.5 °C 1025.6 hPa Calm   8.0 km/h 94 % 0.0 mm 0 W/m2
07:25 -4.8 °C -5.6 °C 1025.6 hPa ENE 1.6 km/h 8.0 km/h 94 % 0.0 mm 0 W/m2
07:30 -4.9 °C -5.7 °C 1025.6 hPa Calm   6.4 km/h 94 % 0.0 mm 0 W/m2
07:35 -4.8 °C -5.7 °C 1025.6 hPa East 8.0 km/h 9.7 km/h 94 % 0.0 mm 0 W/m2
07:40 -4.7 °C -5.5 °C 1025.3 hPa East 9.7 km/h 12.9 km/h 94 % 0.0 mm 0 W/m2
07:45 -4.7 °C -5.5 °C 1025.3 hPa ENE 1.6 km/h 12.9 km/h 94 % 0.0 mm 0 W/m2
07:50 -4.7 °C -5.5 °C 1025.3 hPa NE 4.8 km/h 11.3 km/h 94 % 0.0 mm 0 W/m2
07:55 -4.7 °C -5.5 °C 1025.3 hPa NE 4.8 km/h 9.7 km/h 94 % 0.0 mm 0 W/m2
08:00 -4.7 °C -5.5 °C 1025.6 hPa ENE 6.4 km/h 11.3 km/h 94 % 0.0 mm 0 W/m2
08:05 -4.6 °C -5.4 °C 1025.6 hPa NE 1.6 km/h 11.3 km/h 94 % 0.0 mm 0 W/m2
08:10 -4.6 °C -5.4 °C 1025.6 hPa ENE 6.4 km/h 14.5 km/h 94 % 0.0 mm 0 W/m2
08:15 -4.4 °C -5.3 °C 1025.6 hPa ENE 1.6 km/h 14.5 km/h 94 % 0.0 mm 0 W/m2
08:20 -4.4 °C -5.3 °C 1026.0 hPa East 4.8 km/h 12.9 km/h 94 % 0.0 mm 0 W/m2
08:25 -4.6 °C -5.4 °C 1025.6 hPa NE 4.8 km/h 11.3 km/h 94 % 0.0 mm 0 W/m2
08:30 -4.7 °C -5.5 °C 1025.6 hPa ENE 1.6 km/h 11.3 km/h 94 % 0.0 mm 0 W/m2
08:35 -4.7 °C -5.5 °C 1025.6 hPa ENE 1.6 km/h 9.7 km/h 94 % 0.0 mm 0 W/m2
08:40 -4.7 °C -5.5 °C 1026.0 hPa Calm   8.0 km/h 94 % 0.0 mm 0 W/m2
08:45 -4.7 °C -5.5 °C 1025.6 hPa East 8.0 km/h 9.7 km/h 94 % 0.0 mm 0 W/m2
08:50 -4.7 °C -5.5 °C 1025.6 hPa East 3.2 km/h 11.3 km/h 94 % 0.0 mm 5 W/m2
08:55 -4.7 °C -5.5 °C 1025.6 hPa Calm   11.3 km/h 94 % 0.0 mm 7 W/m2
09:00 -4.8 °C -5.8 °C 1025.6 hPa Calm   8.0 km/h 93 % 0.0 mm 9 W/m2
09:05 -4.8 °C -5.6 °C 1025.6 hPa East 3.2 km/h 8.0 km/h 94 % 0.0 mm 11 W/m2
09:10 -4.7 °C -5.5 °C 1025.6 hPa East 3.2 km/h 8.0 km/h 94 % 0.0 mm 14 W/m2
09:15 -4.7 °C -5.5 °C 1025.6 hPa ENE 4.8 km/h 8.0 km/h 94 % 0.0 mm 16 W/m2
09:20 -4.6 °C -5.4 °C 1025.6 hPa East 1.6 km/h 9.7 km/h 94 % 0.0 mm 18 W/m2
09:25 -4.6 °C -5.4 °C 1025.6 hPa Calm   9.7 km/h 94 % 0.0 mm 19 W/m2
09:30 -4.6 °C -5.4 °C 1025.6 hPa ENE 3.2 km/h 9.7 km/h 94 % 0.0 mm 21 W/m2
09:35 -4.4 °C -5.3 °C 1025.6 hPa ENE 4.8 km/h 9.7 km/h 94 % 0.0 mm 25 W/m2
09:40 -4.3 °C -5.2 °C 1025.6 hPa East 3.2 km/h 11.3 km/h 94 % 0.0 mm 23 W/m2
09:45 -4.3 °C -5.2 °C 1025.6 hPa NE 6.4 km/h 11.3 km/h 93 % 0.0 mm 26 W/m2
09:50 -4.2 °C -5.0 °C 1025.6 hPa East 1.6 km/h 12.9 km/h 94 % 0.0 mm 30 W/m2
09:55 -4.1 °C -5.0 °C 1025.6 hPa ENE 1.6 km/h 12.9 km/h 93 % 0.0 mm 32 W/m2
10:00 -3.9 °C -4.8 °C 1025.6 hPa Calm   12.9 km/h 94 % 0.0 mm 33 W/m2
10:05 -3.8 °C -4.8 °C 1025.6 hPa East 3.2 km/h 12.9 km/h 93 % 0.0 mm 35 W/m2
10:10 -3.7 °C -4.7 °C 1025.6 hPa ENE 6.4 km/h 11.3 km/h 93 % 0.0 mm 37 W/m2
10:15 -3.6 °C -4.5 °C 1025.6 hPa East 8.0 km/h 11.3 km/h 93 % 0.0 mm 39 W/m2
10:20 -3.4 °C -4.4 °C 1025.6 hPa East 9.7 km/h 12.9 km/h 93 % 0.0 mm 40 W/m2
10:25 -3.3 °C -4.2 °C 1025.6 hPa ENE 6.4 km/h 12.9 km/h 93 % 0.0 mm 58 W/m2
10:30 -3.1 °C -4.1 °C 1025.6 hPa East 6.4 km/h 11.3 km/h 93 % 0.0 mm 83 W/m2
10:35 -2.9 °C -3.9 °C 1025.6 hPa East 1.6 km/h 9.7 km/h 93 % 0.0 mm 77 W/m2
10:40 -2.8 °C -4.0 °C 1025.6 hPa ENE 6.4 km/h 12.9 km/h 92 % 0.0 mm 90 W/m2
10:50 -2.4 °C -3.5 °C 1025.6 hPa ENE 1.6 km/h 11.3 km/h 92 % 0.0 mm 178 W/m2
10:55 -2.1 °C -3.2 °C 1025.6 hPa ENE 4.8 km/h 11.3 km/h 92 % 0.0 mm 223 W/m2
11:00 -1.8 °C -3.1 °C 1025.6 hPa ENE 11.3 km/h 12.9 km/h 91 % 0.0 mm 278 W/m2
11:05 -1.6 °C -2.9 °C 1025.6 hPa ENE 11.3 km/h 12.9 km/h 91 % 0.0 mm 272 W/m2
11:10 -1.4 °C -2.8 °C 1026.0 hPa NE 3.2 km/h 11.3 km/h 90 % 0.0 mm 251 W/m2
11:15 -1.2 °C -2.6 °C 1026.0 hPa Calm   12.9 km/h 90 % 0.3 mm 257 W/m2
11:20 -0.8 °C -2.3 °C 1026.0 hPa NE 3.2 km/h 12.9 km/h 90 % 0.3 mm 251 W/m2
11:25 -0.6 °C -2.2 °C 1026.0 hPa NE 1.6 km/h 6.4 km/h 89 % 0.3 mm 206 W/m2
11:30 -0.5 °C -2.1 °C 1026.0 hPa NE 1.6 km/h 6.4 km/h 89 % 0.3 mm 311 W/m2
11:35 -0.2 °C -1.9 °C 1025.6 hPa ENE 8.0 km/h 8.0 km/h 88 % 0.3 mm 318 W/m2
11:40 0.0 °C -1.8 °C 1025.6 hPa Calm   9.7 km/h 88 % 0.3 mm 313 W/m2
11:45 0.2 °C -1.9 °C 1025.6 hPa NE 6.4 km/h 14.5 km/h 86 % 0.3 mm 327 W/m2
11:50 0.4 °C -1.6 °C 1025.6 hPa ENE 6.4 km/h 14.5 km/h 86 % 0.3 mm 327 W/m2
11:55 0.6 °C -1.6 °C 1025.6 hPa NE 6.4 km/h 11.3 km/h 85 % 0.3 mm 330 W/m2
12:00 0.8 °C -1.2 °C 1025.6 hPa ENE 4.8 km/h 11.3 km/h 86 % 0.3 mm 330 W/m2
12:05 1.1 °C -1.1 °C 1025.6 hPa ENE 8.0 km/h 11.3 km/h 85 % 0.3 mm 334 W/m2
12:10 1.3 °C -1.1 °C 1025.6 hPa NE 1.6 km/h 11.3 km/h 84 % 0.3 mm 336 W/m2
12:15 1.5 °C -1.1 °C 1025.6 hPa NE 4.8 km/h 9.7 km/h 83 % 0.0 mm 339 W/m2
12:20 1.8 °C -0.9 °C 1025.6 hPa ENE 3.2 km/h 12.9 km/h 82 % 0.0 mm 345 W/m2
12:25 2.1 °C -0.9 °C 1025.6 hPa ENE 3.2 km/h 12.9 km/h 81 % 0.0 mm 343 W/m2
12:30 2.3 °C -0.6 °C 1025.3 hPa NE 4.8 km/h 9.7 km/h 81 % 0.0 mm 346 W/m2
12:35 2.5 °C -0.4 °C 1025.3 hPa NE 4.8 km/h 9.7 km/h 81 % 0.0 mm 352 W/m2
12:40 2.8 °C -0.3 °C 1025.3 hPa East 4.8 km/h 9.7 km/h 80 % 0.0 mm 348 W/m2
12:45 3.0 °C -0.3 °C 1025.3 hPa NE 4.8 km/h 9.7 km/h 79 % 0.0 mm 348 W/m2
12:50 3.2 °C -0.3 °C 1025.3 hPa ENE 1.6 km/h 9.7 km/h 78 % 0.0 mm 352 W/m2
12:55 3.6 °C -0.1 °C 1025.3 hPa ENE 4.8 km/h 8.0 km/h 77 % 0.0 mm 357 W/m2
13:00 3.4 °C 0.0 °C 1025.3 hPa NNE 4.8 km/h 9.7 km/h 78 % 0.0 mm 357 W/m2
13:05 3.7 °C 0.1 °C 1025.3 hPa East 4.8 km/h 11.3 km/h 77 % 0.0 mm 359 W/m2
13:10 3.8 °C 0.0 °C 1024.9 hPa NE 4.8 km/h 11.3 km/h 76 % 0.0 mm 357 W/m2
13:15 4.2 °C 0.1 °C 1024.9 hPa NE 4.8 km/h 8.0 km/h 75 % 0.0 mm 359 W/m2
13:20 4.2 °C 0.4 °C 1024.9 hPa North 8.0 km/h 12.9 km/h 76 % 0.0 mm 360 W/m2
13:25 4.7 °C 0.6 °C 1024.6 hPa ENE 8.0 km/h 12.9 km/h 75 % 0.0 mm 357 W/m2
13:30 4.6 °C 0.5 °C 1024.6 hPa North 1.6 km/h 11.3 km/h 75 % 0.0 mm 360 W/m2
13:35 4.7 °C 0.7 °C 1024.6 hPa NE 1.6 km/h 11.3 km/h 75 % 0.0 mm 355 W/m2
13:40 4.9 °C 0.5 °C 1024.6 hPa NE 6.4 km/h 11.3 km/h 73 % 0.0 mm 355 W/m2
13:45 5.1 °C 0.7 °C 1024.6 hPa NE 11.3 km/h 12.9 km/h 73 % 0.0 mm 352 W/m2
13:50 5.2 °C 1.1 °C 1024.6 hPa NE 3.2 km/h 12.9 km/h 75 % 0.0 mm 352 W/m2
13:55 5.6 °C 0.9 °C 1024.6 hPa ENE 6.4 km/h 14.5 km/h 72 % 0.0 mm 350 W/m2
14:00 5.4 °C 0.6 °C 1024.6 hPa NE 12.9 km/h 16.1 km/h 71 % 0.0 mm 348 W/m2
14:05 5.6 °C 0.4 °C 1024.3 hPa NNE 6.4 km/h 16.1 km/h 69 % 0.0 mm 343 W/m2
14:10 5.6 °C 0.5 °C 1024.3 hPa NE 9.7 km/h 12.9 km/h 70 % 0.0 mm 339 W/m2
14:15 5.7 °C 0.8 °C 1024.3 hPa ENE 3.2 km/h 12.9 km/h 71 % 0.0 mm 334 W/m2
14:20 5.9 °C 0.7 °C 1024.3 hPa NNE 4.8 km/h 14.5 km/h 69 % 0.0 mm 329 W/m2
14:25 6.1 °C 0.6 °C 1024.3 hPa North 3.2 km/h 14.5 km/h 68 % 0.0 mm 323 W/m2
14:30 6.1 °C 1.0 °C 1023.9 hPa ENE 8.0 km/h 14.5 km/h 70 % 0.0 mm 318 W/m2
14:35 6.3 °C 0.8 °C 1023.9 hPa ENE 4.8 km/h 12.9 km/h 68 % 0.0 mm 315 W/m2
14:40 6.3 °C 1.1 °C 1023.9 hPa ENE 3.2 km/h 14.5 km/h 69 % 0.0 mm 308 W/m2
14:45 6.5 °C 1.0 °C 1023.9 hPa NNE 4.8 km/h 14.5 km/h 68 % 0.0 mm 297 W/m2
14:50 6.6 °C 0.7 °C 1023.9 hPa NE 9.7 km/h 14.5 km/h 66 % 0.0 mm 295 W/m2
14:55 6.4 °C 0.8 °C 1023.9 hPa East 9.7 km/h 16.1 km/h 67 % 0.0 mm 288 W/m2
15:00 6.6 °C 0.7 °C 1023.6 hPa ENE 3.2 km/h 16.1 km/h 66 % 0.0 mm 283 W/m2
15:05 6.9 °C 0.8 °C 1023.6 hPa NE 3.2 km/h 16.1 km/h 65 % 0.0 mm 276 W/m2
15:10 6.8 °C 0.7 °C 1023.6 hPa ENE 11.3 km/h 14.5 km/h 65 % 0.0 mm 269 W/m2
15:15 6.7 °C 0.8 °C 1023.6 hPa East 12.9 km/h 16.1 km/h 66 % 0.0 mm 262 W/m2
15:20 6.7 °C 0.8 °C 1023.6 hPa ENE 9.7 km/h 17.7 km/h 66 % 0.0 mm 250 W/m2
15:25 6.5 °C 0.4 °C 1023.6 hPa ENE 4.8 km/h 17.7 km/h 65 % 0.0 mm 244 W/m2
15:30 6.7 °C 0.3 °C 1023.6 hPa ENE 11.3 km/h 16.1 km/h 64 % 0.0 mm 237 W/m2
15:35 6.5 °C 0.4 °C 1023.6 hPa ENE 4.8 km/h 16.1 km/h 65 % 0.0 mm 229 W/m2
15:40 6.5 °C 0.6 °C 1023.6 hPa ENE 4.8 km/h 16.1 km/h 66 % 0.0 mm 218 W/m2
15:45 6.6 °C 0.7 °C 1023.6 hPa NE 1.6 km/h 14.5 km/h 66 % 0.0 mm 207 W/m2
15:50 6.5 °C 0.4 °C 1023.6 hPa NE 1.6 km/h 14.5 km/h 65 % 0.0 mm 199 W/m2
15:55 6.4 °C 0.1 °C 1023.6 hPa NNE 8.0 km/h 16.1 km/h 64 % 0.0 mm 188 W/m2
16:00 6.3 °C 0.2 °C 1023.6 hPa ENE 3.2 km/h 16.1 km/h 65 % 0.0 mm 179 W/m2
16:05 6.3 °C 0.0 °C 1023.6 hPa NE 4.8 km/h 16.1 km/h 64 % 0.0 mm 169 W/m2
16:10 6.3 °C 0.2 °C 1023.6 hPa NE 4.8 km/h 14.5 km/h 65 % 0.0 mm 156 W/m2
16:15 6.3 °C 0.6 °C 1023.6 hPa ENE 3.2 km/h 14.5 km/h 67 % 0.0 mm 146 W/m2
16:20 6.2 °C 0.7 °C 1023.6 hPa NE 3.2 km/h 12.9 km/h 68 % 0.0 mm 134 W/m2
16:25 6.1 °C 0.6 °C 1023.6 hPa NE 4.8 km/h 9.7 km/h 68 % 0.0 mm 121 W/m2
16:30 6.1 °C 0.6 °C 1023.6 hPa NE 8.0 km/h 12.9 km/h 68 % 0.0 mm 60 W/m2
16:35 5.7 °C 0.5 °C 1023.2 hPa ENE 11.3 km/h 14.5 km/h 69 % 0.0 mm 39 W/m2
16:40 5.4 °C 0.2 °C 1023.2 hPa ENE 6.4 km/h 14.5 km/h 69 % 0.0 mm 26 W/m2
16:50 4.9 °C 0.1 °C 1023.2 hPa ENE 4.8 km/h 12.9 km/h 71 % 0.0 mm 25 W/m2
16:55 4.6 °C -0.1 °C 1023.2 hPa ENE 6.4 km/h 12.9 km/h 72 % 0.0 mm 28 W/m2
17:00 4.3 °C -0.1 °C 1023.2 hPa ENE 6.4 km/h 12.9 km/h 73 % 0.0 mm 25 W/m2
17:05 4.3 °C -0.3 °C 1023.2 hPa NE 1.6 km/h 12.9 km/h 72 % 0.0 mm 26 W/m2
17:10 4.2 °C -0.4 °C 1023.2 hPa NE 3.2 km/h 12.9 km/h 72 % 0.0 mm 23 W/m2
17:15 3.8 °C -0.6 °C 1023.2 hPa ENE 3.2 km/h 12.9 km/h 73 % 0.0 mm 19 W/m2
17:20 3.7 °C -0.7 °C 1023.6 hPa ENE 1.6 km/h 6.4 km/h 73 % 0.0 mm 14 W/m2
17:25 3.6 °C -0.6 °C 1023.6 hPa ENE 4.8 km/h 6.4 km/h 74 % 0.0 mm 14 W/m2
17:30 3.6 °C -0.6 °C 1023.6 hPa ENE 3.2 km/h 8.0 km/h 74 % 0.0 mm 16 W/m2
17:35 3.7 °C -0.7 °C 1023.6 hPa East 3.2 km/h 11.3 km/h 73 % 0.0 mm 14 W/m2
17:40 3.7 °C -0.7 °C 1023.6 hPa East 6.4 km/h 11.3 km/h 73 % 0.0 mm 12 W/m2
17:45 3.4 °C -0.8 °C 1023.6 hPa East 4.8 km/h 9.7 km/h 74 % 0.0 mm 9 W/m2
17:50 3.3 °C -0.9 °C 1023.6 hPa ENE 3.2 km/h 9.7 km/h 74 % 0.0 mm 5 W/m2
17:55 3.1 °C -0.9 °C 1023.6 hPa East 3.2 km/h 11.3 km/h 75 % 0.0 mm 0 W/m2
18:00 2.9 °C -0.9 °C 1023.6 hPa NE 11.3 km/h 11.3 km/h 76 % 0.0 mm 0 W/m2
18:05 2.8 °C -1.0 °C 1023.6 hPa East 1.6 km/h 12.9 km/h 76 % 0.0 mm 0 W/m2
18:10 2.8 °C -1.0 °C 1023.9 hPa ENE 4.8 km/h 12.9 km/h 76 % 0.0 mm 0 W/m2
18:15 2.8 °C -1.0 °C 1023.6 hPa East 8.0 km/h 11.3 km/h 76 % 0.0 mm 0 W/m2
18:20 2.8 °C -1.0 °C 1023.6 hPa ENE 6.4 km/h 11.3 km/h 76 % 0.0 mm 0 W/m2
18:25 2.9 °C -0.9 °C 1023.9 hPa East 4.8 km/h 12.9 km/h 76 % 0.0 mm 0 W/m2
18:30 3.0 °C -1.0 °C 1023.6 hPa East 4.8 km/h 12.9 km/h 75 % 0.0 mm 0 W/m2
18:35 2.9 °C -1.1 °C 1023.6 hPa East 6.4 km/h 12.9 km/h 75 % 0.0 mm 0 W/m2
18:40 2.8 °C -1.2 °C 1023.6 hPa East 8.0 km/h 11.3 km/h 75 % 0.0 mm 0 W/m2
18:45 2.8 °C -1.0 °C 1023.9 hPa East 9.7 km/h 9.7 km/h 76 % 0.0 mm 0 W/m2
18:50 2.8 °C -1.0 °C 1023.9 hPa ENE 1.6 km/h 11.3 km/h 76 % 0.0 mm 0 W/m2
18:55 2.7 °C -1.1 °C 1023.9 hPa East 1.6 km/h 11.3 km/h 76 % 0.0 mm 0 W/m2
19:00 2.7 °C -1.1 °C 1023.9 hPa East 8.0 km/h 11.3 km/h 76 % 0.0 mm 0 W/m2
19:05 2.7 °C -1.1 °C 1023.9 hPa ESE 4.8 km/h 9.7 km/h 76 % 0.0 mm 0 W/m2
19:10 2.6 °C -1.2 °C 1023.9 hPa ESE 4.8 km/h 11.3 km/h 76 % 0.0 mm 0 W/m2
19:15 2.5 °C -1.3 °C 1023.9 hPa ESE 8.0 km/h 11.3 km/h 76 % 0.0 mm 0 W/m2
19:20 2.5 °C -1.1 °C 1023.9 hPa East 4.8 km/h 14.5 km/h 77 % 0.0 mm 0 W/m2
19:25 2.4 °C -1.2 °C 1023.9 hPa ENE 11.3 km/h 14.5 km/h 77 % 0.0 mm 0 W/m2
19:30 2.3 °C -1.3 °C 1023.9 hPa East 9.7 km/h 11.3 km/h 77 % 0.0 mm 0 W/m2
19:35 2.3 °C -1.2 °C 1023.9 hPa East 6.4 km/h 12.9 km/h 78 % 0.0 mm 0 W/m2
19:40 2.3 °C -1.2 °C 1023.9 hPa East 8.0 km/h 14.5 km/h 78 % 0.0 mm 0 W/m2
19:45 2.3 °C -1.2 °C 1023.9 hPa ENE 11.3 km/h 14.5 km/h 78 % 0.0 mm 0 W/m2
19:50 2.2 °C -1.2 °C 1023.9 hPa East 8.0 km/h 12.9 km/h 78 % 0.0 mm 0 W/m2
19:55 2.2 °C -1.3 °C 1023.9 hPa NE 3.2 km/h 12.9 km/h 78 % 0.0 mm 0 W/m2
20:00 2.2 °C -1.1 °C 1023.9 hPa East 4.8 km/h 12.9 km/h 79 % 0.0 mm 0 W/m2
20:05 2.2 °C -1.1 °C 1023.9 hPa ENE 4.8 km/h 12.9 km/h 79 % 0.0 mm 0 W/m2
20:10 2.1 °C -1.2 °C 1023.9 hPa East 6.4 km/h 12.9 km/h 79 % 0.0 mm 0 W/m2
20:15 2.0 °C -1.1 °C 1023.9 hPa East 8.0 km/h 12.9 km/h 80 % 0.0 mm 0 W/m2
20:20 2.0 °C -1.1 °C 1023.9 hPa East 1.6 km/h 12.9 km/h 80 % 0.0 mm 0 W/m2
20:25 1.9 °C -1.1 °C 1024.3 hPa East 1.6 km/h 11.3 km/h 80 % 0.0 mm 0 W/m2
20:30 1.9 °C -1.1 °C 1023.9 hPa ESE 3.2 km/h 11.3 km/h 80 % 0.0 mm 0 W/m2
20:35 1.9 °C -1.0 °C 1024.3 hPa ESE 4.8 km/h 11.3 km/h 81 % 0.0 mm 0 W/m2
20:40 1.9 °C -1.0 °C 1024.3 hPa East 1.6 km/h 9.7 km/h 81 % 0.0 mm 0 W/m2
20:45 1.8 °C -1.1 °C 1023.9 hPa East 6.4 km/h 11.3 km/h 81 % 0.0 mm 0 W/m2
20:50 1.8 °C -1.1 °C 1023.9 hPa East 4.8 km/h 11.3 km/h 81 % 0.0 mm 0 W/m2
20:55 1.8 °C -1.0 °C 1024.3 hPa East 4.8 km/h 11.3 km/h 82 % 0.0 mm 0 W/m2
21:00 1.8 °C -1.0 °C 1024.3 hPa East 3.2 km/h 11.3 km/h 82 % 0.0 mm 0 W/m2
21:05 1.7 °C -1.1 °C 1023.9 hPa East 6.4 km/h 11.3 km/h 82 % 0.0 mm 0 W/m2
21:10 1.6 °C -1.1 °C 1024.3 hPa ENE 3.2 km/h 11.3 km/h 82 % 0.0 mm 0 W/m2
21:15 1.5 °C -1.2 °C 1024.3 hPa ENE 3.2 km/h 11.3 km/h 82 % 0.0 mm 0 W/m2
21:20 1.4 °C -1.2 °C 1024.3 hPa East 3.2 km/h 8.0 km/h 83 % 0.0 mm 0 W/m2
21:25 1.3 °C -1.2 °C 1024.3 hPa East 1.6 km/h 8.0 km/h 83 % 0.0 mm 0 W/m2
21:30 1.2 °C -1.3 °C 1023.9 hPa East 4.8 km/h 4.8 km/h 83 % 0.0 mm 0 W/m2
21:35 1.0 °C -1.6 °C 1023.9 hPa East 1.6 km/h 6.4 km/h 83 % 0.0 mm 0 W/m2
21:40 0.7 °C -1.7 °C 1023.9 hPa East 1.6 km/h 8.0 km/h 84 % 0.0 mm 0 W/m2
21:45 0.6 °C -1.7 °C 1023.9 hPa East 1.6 km/h 8.0 km/h 85 % 0.0 mm 0 W/m2
21:50 0.4 °C -1.8 °C 1023.9 hPa East 4.8 km/h 4.8 km/h 85 % 0.0 mm 0 W/m2
21:55 0.3 °C -1.9 °C 1023.9 hPa ESE 4.8 km/h 6.4 km/h 85 % 0.0 mm 0 W/m2
22:00 0.2 °C -2.0 °C 1023.9 hPa ESE 1.6 km/h 6.4 km/h 85 % 0.0 mm 0 W/m2
22:05 0.1 °C -2.0 °C 1023.9 hPa Calm   4.8 km/h 86 % 0.0 mm 0 W/m2
22:10 0.0 °C -1.9 °C 1023.9 hPa Calm   3.2 km/h 87 % 0.0 mm 0 W/m2
22:15 0.1 °C -1.8 °C 1023.9 hPa Calm   4.8 km/h 87 % 0.0 mm 0 W/m2
22:20 0.2 °C -1.7 °C 1023.9 hPa Calm   4.8 km/h 87 % 0.0 mm 0 W/m2
22:25 0.2 °C -1.8 °C 1023.9 hPa ESE 1.6 km/h 4.8 km/h 86 % 0.0 mm 0 W/m2
22:30 0.1 °C -1.8 °C 1023.9 hPa ESE 3.2 km/h 4.8 km/h 87 % 0.0 mm 0 W/m2
22:35 0.2 °C -1.7 °C 1024.3 hPa ESE 3.2 km/h 4.8 km/h 87 % 0.0 mm 0 W/m2
22:40 0.2 °C -1.7 °C 1024.3 hPa ESE 1.6 km/h 4.8 km/h 87 % 0.0 mm 0 W/m2
22:50 -0.1 °C -2.0 °C 1024.3 hPa East 3.2 km/h 4.8 km/h 87 % 0.0 mm 0 W/m2
22:55 -0.2 °C -2.1 °C 1024.3 hPa East 3.2 km/h 8.0 km/h 87 % 0.0 mm 0 W/m2
23:00 -0.3 °C -2.2 °C 1024.3 hPa East 3.2 km/h 8.0 km/h 87 % 0.0 mm 0 W/m2
23:05 -0.3 °C -2.0 °C 1024.3 hPa East 3.2 km/h 8.0 km/h 88 % 0.0 mm 0 W/m2
23:10 -0.3 °C -2.1 °C 1024.3 hPa East 1.6 km/h 4.8 km/h 88 % 0.0 mm 0 W/m2
23:15 -0.5 °C -2.2 °C 1024.3 hPa East 3.2 km/h 8.0 km/h 88 % 0.0 mm 0 W/m2
23:20 -0.5 °C -2.2 °C 1024.3 hPa East 1.6 km/h 8.0 km/h 88 % 0.0 mm 0 W/m2
23:25 -0.4 °C -2.2 °C 1024.3 hPa East 1.6 km/h 8.0 km/h 88 % 0.0 mm 0 W/m2
23:30 -0.5 °C -2.1 °C 1024.3 hPa Calm   8.0 km/h 89 % 0.0 mm 0 W/m2
23:35 -0.6 °C -2.2 °C 1024.3 hPa East 1.6 km/h 8.0 km/h 89 % 0.0 mm 0 W/m2
23:40 -0.6 °C -2.1 °C 1024.3 hPa East 3.2 km/h 8.0 km/h 89 % 0.0 mm 0 W/m2
23:45 -0.5 °C -2.1 °C 1024.3 hPa East 3.2 km/h 4.8 km/h 89 % 0.0 mm 0 W/m2
23:50 -0.5 °C -2.1 °C 1024.3 hPa East 3.2 km/h 4.8 km/h 89 % 0.0 mm 0 W/m2
23:55 -0.4 °C -2.0 °C 1024.3 hPa East 3.2 km/h 8.0 km/h 89 % 0.0 mm 0 W/m2
Avec l'autorisation de Weather Underground - 1.75 mb